createdAt,value
2023-02-02T00:01:52.095Z,42.33
2023-02-02T00:04:31.083Z,36.93
2023-02-02T00:07:00.030Z,35.70
2023-02-02T00:09:30.492Z,43.67
2023-02-02T00:12:00.340Z,41.97
2023-02-02T00:14:30.103Z,40.70
2023-02-02T00:16:58.819Z,40.47
2023-02-02T00:19:30.623Z,39.67
2023-02-02T00:21:58.979Z,36.30
2023-02-02T00:24:27.247Z,34.70
2023-02-02T00:27:00.285Z,35.33
2023-02-02T00:29:30.493Z,35.83
2023-02-02T00:31:59.405Z,36.40
2023-02-02T00:34:27.605Z,32.67
2023-02-02T00:36:56.160Z,33.77
2023-02-02T00:39:26.604Z,37.03
2023-02-02T00:41:55.926Z,37.47
2023-02-02T00:44:43.544Z,38.10
2023-02-02T00:47:12.439Z,34.87
2023-02-02T00:49:40.593Z,35.43
2023-02-02T00:52:09.353Z,34.60
2023-02-02T00:54:39.350Z,30.53
2023-02-02T00:57:08.085Z,35.00
2023-02-02T00:59:39.638Z,29.00
2023-02-02T01:02:08.374Z,32.70
2023-02-02T01:04:39.806Z,35.27
2023-02-02T01:07:08.631Z,33.13
2023-02-02T01:09:37.516Z,31.73
2023-02-02T01:12:06.576Z,36.70
2023-02-02T01:14:34.987Z,33.47
2023-02-02T01:17:06.365Z,31.57
2023-02-02T01:19:36.643Z,33.80
2023-02-02T01:22:05.175Z,32.63
2023-02-02T01:24:33.989Z,37.17
2023-02-02T01:27:03.092Z,32.27
2023-02-02T01:29:31.666Z,32.30
2023-02-02T01:32:00.206Z,29.90
2023-02-02T01:34:28.629Z,34.73
2023-02-02T01:36:57.569Z,34.00
2023-02-02T01:39:26.498Z,33.40
2023-02-02T01:41:55.216Z,33.87
2023-02-02T01:45:11.417Z,31.23
2023-02-02T01:47:46.222Z,30.33
2023-02-02T01:50:16.742Z,30.60
2023-02-02T01:52:48.497Z,37.90
2023-02-02T01:55:19.858Z,35.23
2023-02-02T01:57:56.905Z,33.77
2023-02-02T02:00:29.707Z,38.97
2023-02-02T02:03:02.468Z,31.23
2023-02-02T02:05:35.141Z,37.50
2023-02-02T02:08:27.641Z,35.27
2023-02-02T02:10:56.293Z,38.00
2023-02-02T02:13:47.752Z,41.70
2023-02-02T02:16:47.546Z,37.27
2023-02-02T02:19:34.014Z,37.17
2023-02-02T02:22:38.604Z,27.63
2023-02-02T02:26:13.267Z,32.50
2023-02-02T02:29:06.073Z,30.70
2023-02-02T02:31:45.429Z,30.40
2023-02-02T02:34:43.353Z,40.87
2023-02-02T02:37:19.759Z,37.90
2023-02-02T02:40:02.542Z,35.43
2023-02-02T02:42:35.344Z,34.10
2023-02-02T02:45:05.129Z,34.73
2023-02-02T02:47:45.877Z,28.03
2023-02-02T02:50:16.962Z,29.83
2023-02-02T02:52:46.381Z,28.23
2023-02-02T02:55:15.113Z,31.87
2023-02-02T02:58:05.707Z,33.00
2023-02-02T03:00:34.480Z,31.90
2023-02-02T03:03:41.886Z,31.63
2023-02-02T03:06:24.430Z,33.70
2023-02-02T03:09:01.532Z,32.33
2023-02-02T03:11:30.430Z,32.07
2023-02-02T03:13:58.682Z,35.60
2023-02-02T03:16:26.708Z,39.37
2023-02-02T03:18:56.602Z,33.87
2023-02-02T03:21:24.891Z,34.47
2023-02-02T03:23:53.209Z,37.47
2023-02-02T03:26:21.979Z,36.03
2023-02-02T03:28:51.228Z,35.13
2023-02-02T03:31:19.562Z,35.53
2023-02-02T03:33:51.579Z,38.83
2023-02-02T03:36:29.245Z,33.40
2023-02-02T03:39:00.540Z,33.13
2023-02-02T03:41:29.132Z,30.57
2023-02-02T03:43:58.003Z,36.10
2023-02-02T03:46:26.574Z,33.07
2023-02-02T03:48:54.771Z,31.67
2023-02-02T03:51:22.962Z,34.90
2023-02-02T03:53:57.320Z,35.97
2023-02-02T03:56:25.213Z,42.63
2023-02-02T03:58:53.424Z,47.00
2023-02-02T04:01:35.421Z,46.67
2023-02-02T04:04:03.536Z,43.87
2023-02-02T04:09:15.837Z,34.43
2023-02-02T04:11:44.616Z,41.53
2023-02-02T04:14:15.877Z,42.23
2023-02-02T04:16:44.389Z,42.90
2023-02-02T04:19:16.255Z,42.17
2023-02-02T04:21:44.687Z,41.20
2023-02-02T04:24:14.099Z,39.00
2023-02-02T04:26:42.920Z,39.83
2023-02-02T04:29:10.809Z,32.20
2023-02-02T04:31:39.097Z,33.20
2023-02-02T04:34:07.122Z,32.33
2023-02-02T04:36:35.616Z,33.10
2023-02-02T04:39:03.541Z,30.50
2023-02-02T04:41:31.947Z,32.50
2023-02-02T04:43:59.835Z,36.07
2023-02-02T04:46:29.073Z,35.37
2023-02-02T04:48:57.251Z,33.57
2023-02-02T04:51:25.855Z,35.27
2023-02-02T04:53:54.765Z,34.33
2023-02-02T04:56:22.995Z,37.43
2023-02-02T04:58:55.607Z,38.43
2023-02-02T05:01:24.621Z,45.97
2023-02-02T05:03:53.655Z,45.50
2023-02-02T05:06:22.043Z,48.97
2023-02-02T05:08:50.376Z,49.50
2023-02-02T05:11:23.680Z,54.83
2023-02-02T05:13:55.173Z,51.87
2023-02-02T05:16:25.523Z,41.07
2023-02-02T05:18:57.283Z,57.87
2023-02-02T05:21:25.954Z,45.83
2023-02-02T05:23:55.039Z,45.80
2023-02-02T05:26:25.635Z,49.20
2023-02-02T05:28:54.156Z,50.47
2023-02-02T05:31:22.381Z,45.90
2023-02-02T05:33:50.493Z,52.83
2023-02-02T05:36:18.560Z,55.33
2023-02-02T05:38:47.079Z,54.47
2023-02-02T05:41:15.956Z,59.57
2023-02-02T05:43:44.087Z,56.33
2023-02-02T05:46:12.627Z,53.93
2023-02-02T05:48:40.710Z,54.30
2023-02-02T05:51:23.324Z,58.10
2023-02-02T05:53:52.345Z,56.17
2023-02-02T05:56:21.473Z,59.40
2023-02-02T05:58:50.265Z,56.00
2023-02-02T06:01:19.377Z,48.23
2023-02-02T06:03:50.597Z,48.27
2023-02-02T06:06:23.647Z,43.07
2023-02-02T06:08:51.791Z,50.90
2023-02-02T06:11:20.652Z,49.33
2023-02-02T06:13:49.633Z,47.23
2023-02-02T06:16:19.399Z,47.17
2023-02-02T06:18:49.858Z,39.30
2023-02-02T06:21:20.402Z,48.33
2023-02-02T06:23:48.574Z,37.17
2023-02-02T06:26:18.103Z,36.40
2023-02-02T06:28:50.551Z,34.43
2023-02-02T06:31:20.291Z,34.83
2023-02-02T06:33:49.346Z,40.97
2023-02-02T06:36:17.327Z,38.93
2023-02-02T06:38:50.111Z,40.23
2023-02-02T06:41:28.517Z,34.33
2023-02-02T06:43:57.144Z,41.90
2023-02-02T06:46:25.675Z,45.57
2023-02-02T06:48:54.527Z,42.47
2023-02-02T06:51:23.118Z,37.60
2023-02-02T06:53:52.348Z,40.30
2023-02-02T06:56:20.306Z,31.70
2023-02-02T06:58:48.930Z,29.47
2023-02-02T07:01:17.168Z,35.53
2023-02-02T07:03:50.551Z,29.10
2023-02-02T07:06:21.377Z,31.60
2023-02-02T07:09:01.540Z,27.27
2023-02-02T07:11:37.386Z,30.23
2023-02-02T07:14:36.214Z,29.30
2023-02-02T07:17:04.269Z,27.43
2023-02-02T07:19:32.683Z,26.20
2023-02-02T07:22:00.640Z,31.70
2023-02-02T07:24:29.328Z,32.30
2023-02-02T07:26:58.550Z,35.37
2023-02-02T07:29:26.401Z,38.57
2023-02-02T07:31:54.729Z,33.87
2023-02-02T07:34:37.727Z,32.70
2023-02-02T07:37:05.907Z,34.57
2023-02-02T07:39:36.894Z,31.53
2023-02-02T07:42:12.473Z,29.93
2023-02-02T07:44:40.433Z,29.57
2023-02-02T07:47:08.951Z,31.23
2023-02-02T07:49:37.521Z,33.03
2023-02-02T07:52:06.348Z,33.63
2023-02-02T07:54:35.329Z,36.23
2023-02-02T07:57:03.634Z,30.37
2023-02-02T07:59:32.560Z,31.13
2023-02-02T08:02:01.481Z,29.40
2023-02-02T08:04:29.861Z,27.50
2023-02-02T08:06:58.209Z,26.50
2023-02-02T08:09:26.976Z,34.70
2023-02-02T08:11:55.269Z,27.77
2023-02-02T08:14:23.862Z,30.03
2023-02-02T08:16:52.000Z,29.80
2023-02-02T08:19:20.068Z,32.77
2023-02-02T08:21:48.642Z,31.13
2023-02-02T08:24:16.891Z,29.50
2023-02-02T08:26:45.375Z,28.47
2023-02-02T08:29:17.625Z,26.57
2023-02-02T08:31:46.354Z,27.20
2023-02-02T08:34:14.513Z,27.80
2023-02-02T08:36:43.110Z,28.50
2023-02-02T08:39:13.099Z,27.17
2023-02-02T08:41:41.391Z,26.47
2023-02-02T08:44:11.756Z,29.67
2023-02-02T08:46:41.130Z,32.87
2023-02-02T08:49:12.795Z,25.90
2023-02-02T08:51:42.131Z,23.70
2023-02-02T08:54:12.765Z,24.70
2023-02-02T08:56:41.315Z,20.97
2023-02-02T08:59:10.172Z,22.87
2023-02-02T09:01:38.607Z,21.67
2023-02-02T09:04:08.998Z,20.97
2023-02-02T09:06:41.218Z,25.70
2023-02-02T09:09:14.752Z,22.23
2023-02-02T09:11:44.279Z,26.93
2023-02-02T09:14:15.414Z,26.17
2023-02-02T09:16:44.080Z,23.93
2023-02-02T09:19:15.567Z,26.83
2023-02-02T09:21:44.178Z,26.40
2023-02-02T09:24:14.060Z,27.63
2023-02-02T09:26:44.322Z,22.70
2023-02-02T09:29:15.129Z,27.30
2023-02-02T09:31:44.714Z,29.50
2023-02-02T09:34:15.638Z,25.13
2023-02-02T09:36:44.620Z,25.87
2023-02-02T09:39:15.278Z,25.47
2023-02-02T09:41:56.233Z,25.60
2023-02-02T09:44:50.651Z,23.40
2023-02-02T09:47:36.374Z,24.67
2023-02-02T09:50:14.129Z,25.80
2023-02-02T09:52:47.134Z,29.83
2023-02-02T09:55:20.385Z,29.87
2023-02-02T09:57:53.069Z,24.40
2023-02-02T10:00:34.076Z,29.33
2023-02-02T10:03:07.011Z,21.33
2023-02-02T10:05:57.555Z,23.30
2023-02-02T10:08:39.686Z,22.03
2023-02-02T10:11:28.543Z,22.57
2023-02-02T10:14:03.392Z,23.27
2023-02-02T10:16:32.719Z,20.50
2023-02-02T10:19:09.509Z,24.17
2023-02-02T10:21:44.147Z,24.03
2023-02-02T10:24:21.677Z,20.43
2023-02-02T10:27:26.183Z,21.70
2023-02-02T10:30:00.244Z,22.07
2023-02-02T10:32:39.399Z,24.40
2023-02-02T10:35:37.536Z,26.97
2023-02-02T10:38:57.237Z,22.13
2023-02-02T10:41:41.061Z,21.40
2023-02-02T10:44:34.878Z,24.67
2023-02-02T10:47:28.520Z,21.53
2023-02-02T10:50:20.438Z,20.77
2023-02-02T10:52:54.943Z,19.80
2023-02-02T10:55:31.673Z,23.20
2023-02-02T10:58:12.164Z,19.30
2023-02-02T11:00:48.466Z,19.00
2023-02-02T11:03:24.088Z,19.20
2023-02-02T11:06:11.220Z,17.83
2023-02-02T11:08:47.914Z,20.60
2023-02-02T11:11:23.326Z,19.60
2023-02-02T11:14:00.356Z,18.47
2023-02-02T11:16:42.204Z,20.17
2023-02-02T11:19:17.814Z,18.97
2023-02-02T11:21:55.214Z,18.47
2023-02-02T11:24:40.943Z,17.93
2023-02-02T11:27:11.853Z,18.17
2023-02-02T11:29:41.553Z,21.27
2023-02-02T11:32:33.346Z,19.43
2023-02-02T11:35:11.033Z,21.33
2023-02-02T11:37:40.180Z,19.60
2023-02-02T11:40:28.920Z,17.73
2023-02-02T11:43:00.639Z,19.53
2023-02-02T11:45:56.363Z,18.37
2023-02-02T11:48:31.727Z,17.03
2023-02-02T11:51:01.489Z,17.23
2023-02-02T11:53:49.969Z,14.43
2023-02-02T11:56:26.176Z,13.60
2023-02-02T11:58:58.601Z,14.40
2023-02-02T12:01:34.407Z,15.20
2023-02-02T12:04:17.914Z,14.87
2023-02-02T12:06:46.055Z,14.77
2023-02-02T12:09:18.011Z,11.97
2023-02-02T12:12:05.805Z,11.87
2023-02-02T12:14:50.251Z,13.03
2023-02-02T12:17:42.007Z,11.07
2023-02-02T12:20:33.938Z,11.30
2023-02-02T12:23:36.891Z,13.20
2023-02-02T12:26:25.470Z,10.13
2023-02-02T12:29:31.421Z,10.63
2023-02-02T12:32:28.657Z,8.80
2023-02-02T12:35:23.447Z,10.80
2023-02-02T12:38:02.043Z,14.87
2023-02-02T12:41:01.866Z,9.33
2023-02-02T12:43:42.902Z,10.47
2023-02-02T12:46:25.210Z,7.90
2023-02-02T12:49:00.854Z,10.33
2023-02-02T12:51:55.502Z,8.47
2023-02-02T12:54:51.860Z,8.93
2023-02-02T12:57:30.618Z,8.20
2023-02-02T13:00:29.229Z,10.10
2023-02-02T13:03:10.162Z,9.57
2023-02-02T13:09:10.214Z,11.17
2023-02-02T13:11:46.133Z,12.10
2023-02-02T13:14:31.499Z,12.57
2023-02-02T13:17:12.693Z,12.00
2023-02-02T13:19:53.882Z,13.53
2023-02-02T13:22:30.446Z,17.23
2023-02-02T13:25:07.289Z,11.23
2023-02-02T13:27:39.747Z,8.50
2023-02-02T13:30:25.682Z,12.07
2023-02-02T13:32:59.782Z,7.77
2023-02-02T13:35:36.007Z,6.97
2023-02-02T13:38:17.063Z,11.10
2023-02-02T13:40:45.579Z,16.40
2023-02-02T13:43:28.115Z,13.47
2023-02-02T13:46:01.517Z,13.67
2023-02-02T13:49:01.303Z,16.07
2023-02-02T13:51:54.074Z,17.10
2023-02-02T13:54:44.809Z,22.40
2023-02-02T13:57:17.254Z,20.23
2023-02-02T13:59:55.153Z,20.00
2023-02-02T14:02:35.974Z,24.20
2023-02-02T14:05:07.905Z,22.63
2023-02-02T14:07:48.355Z,27.63
2023-02-02T14:10:28.945Z,24.40
2023-02-02T14:12:57.096Z,23.30
2023-02-02T14:15:41.765Z,29.67
2023-02-02T14:18:12.923Z,31.50
2023-02-02T14:20:47.419Z,27.23
2023-02-02T14:23:51.395Z,23.57
2023-02-02T14:26:40.338Z,24.73
2023-02-02T14:29:55.918Z,25.90
2023-02-02T14:32:30.931Z,28.47
2023-02-02T14:35:01.687Z,29.10
2023-02-02T14:38:08.441Z,26.93
2023-02-02T14:40:54.168Z,49.17
2023-02-02T14:43:48.639Z,32.27
2023-02-02T14:46:24.667Z,31.97
2023-02-02T14:48:55.806Z,34.83
2023-02-02T14:51:32.093Z,23.70
2023-02-02T14:54:02.805Z,21.13
2023-02-02T14:56:45.958Z,21.53
2023-02-02T14:59:23.233Z,21.73
2023-02-02T15:02:03.238Z,20.63
2023-02-02T15:04:32.246Z,19.50
2023-02-02T15:07:24.592Z,20.03
2023-02-02T15:09:59.174Z,21.43
2023-02-02T15:12:46.680Z,18.53
2023-02-02T15:15:24.191Z,17.57
2023-02-02T15:18:21.387Z,20.00
2023-02-02T15:20:50.517Z,19.47
2023-02-02T15:23:37.387Z,21.10
2023-02-02T15:26:31.459Z,22.33
2023-02-02T15:29:17.415Z,19.77
2023-02-02T15:31:54.689Z,18.13
2023-02-02T15:34:44.551Z,19.87
2023-02-02T15:37:18.105Z,20.67
2023-02-02T15:39:52.311Z,26.60
2023-02-02T15:42:44.303Z,18.50
2023-02-02T15:45:43.967Z,21.20
2023-02-02T15:48:22.213Z,20.87
2023-02-02T15:50:55.026Z,21.97
2023-02-02T15:53:29.542Z,22.87
2023-02-02T15:55:58.038Z,26.90
2023-02-02T15:58:32.820Z,19.53
2023-02-02T16:01:07.004Z,17.50
2023-02-02T16:03:48.315Z,17.73
2023-02-02T16:06:17.959Z,16.13
2023-02-02T16:08:53.853Z,18.27
2023-02-02T16:11:24.494Z,14.63
2023-02-02T16:14:02.109Z,16.87
2023-02-02T16:16:34.879Z,14.07
2023-02-02T16:19:08.972Z,20.23
2023-02-02T16:21:41.622Z,16.57
2023-02-02T16:24:15.387Z,22.73
2023-02-02T16:26:45.805Z,18.87
2023-02-02T16:29:19.090Z,17.63
2023-02-02T16:31:48.998Z,16.63
2023-02-02T16:34:19.972Z,19.73
2023-02-02T16:37:07.107Z,17.30
2023-02-02T16:39:35.772Z,22.63
2023-02-02T16:42:31.999Z,23.63
2023-02-02T16:45:01.319Z,23.87
2023-02-02T16:47:30.782Z,25.93
2023-02-02T16:50:10.039Z,24.17
2023-02-02T16:52:57.409Z,27.43
2023-02-02T16:55:36.428Z,27.97
2023-02-02T16:58:22.672Z,44.27
2023-02-02T17:01:15.560Z,30.37
2023-02-02T17:03:51.336Z,26.37
2023-02-02T17:06:38.739Z,25.60
2023-02-02T17:09:28.133Z,24.97
2023-02-02T17:12:33.262Z,35.80
2023-02-02T17:15:23.906Z,27.97
2023-02-02T17:17:52.444Z,27.20
2023-02-02T17:20:20.873Z,28.47
2023-02-02T17:22:52.727Z,33.57
2023-02-02T17:25:29.034Z,33.17
2023-02-02T17:27:59.255Z,41.13
2023-02-02T17:30:28.668Z,37.87
2023-02-02T17:32:57.696Z,34.70
2023-02-02T17:35:43.542Z,36.73
2023-02-02T17:38:17.874Z,47.33
2023-02-02T17:40:46.233Z,54.53
2023-02-02T17:43:14.467Z,44.33
2023-02-02T17:45:43.441Z,46.47
2023-02-02T17:48:12.916Z,70.73
2023-02-02T17:50:42.595Z,69.90
2023-02-02T17:53:17.637Z,57.17
2023-02-02T17:55:47.149Z,54.73
2023-02-02T17:58:17.534Z,53.27
2023-02-02T18:00:53.688Z,55.23
2023-02-02T18:03:25.005Z,51.57
2023-02-02T18:05:53.196Z,50.43
2023-02-02T18:08:21.393Z,49.87
2023-02-02T18:10:51.126Z,53.90
2023-02-02T18:13:20.733Z,42.27
2023-02-02T18:15:50.230Z,42.30
2023-02-02T18:18:18.107Z,41.00
2023-02-02T18:20:48.238Z,46.23
2023-02-02T18:23:18.400Z,46.83
2023-02-02T18:25:47.000Z,52.47
2023-02-02T18:28:18.092Z,47.10
2023-02-02T18:30:47.939Z,48.23
2023-02-02T18:33:20.053Z,47.00
2023-02-02T18:35:49.290Z,44.83
2023-02-02T18:38:18.436Z,49.80
2023-02-02T18:40:46.571Z,73.37
2023-02-02T18:43:15.290Z,49.53
2023-02-02T18:45:43.752Z,47.10
2023-02-02T18:48:12.589Z,47.13
2023-02-02T18:50:40.919Z,49.03
2023-02-02T18:53:09.390Z,43.97
2023-02-02T18:55:38.289Z,45.70
2023-02-02T18:58:10.945Z,48.67
2023-02-02T19:00:39.869Z,49.47
2023-02-02T19:03:14.424Z,39.40
2023-02-02T19:06:02.352Z,40.00
2023-02-02T19:08:33.571Z,42.27
2023-02-02T19:11:11.650Z,46.80
2023-02-02T19:13:40.074Z,43.33
2023-02-02T19:16:25.874Z,42.33
2023-02-02T19:19:20.258Z,36.30
2023-02-02T19:21:48.885Z,36.83
2023-02-02T19:24:17.090Z,37.47
2023-02-02T19:26:47.589Z,36.23
2023-02-02T19:29:25.313Z,37.77
2023-02-02T19:31:59.520Z,37.07
2023-02-02T19:34:27.558Z,38.77
2023-02-02T19:36:55.837Z,37.13
2023-02-02T19:39:31.201Z,32.60
2023-02-02T19:42:02.998Z,32.00
2023-02-02T19:44:34.476Z,31.37
2023-02-02T19:47:03.061Z,30.50
2023-02-02T19:49:33.694Z,28.98
2023-02-02T19:52:04.323Z,28.73
2023-02-02T19:54:35.668Z,26.73
2023-02-02T19:57:41.269Z,21.40
2023-02-02T20:00:21.348Z,57.67
2023-02-02T20:03:05.731Z,26.13
2023-02-02T20:05:46.377Z,22.93
2023-02-02T20:08:39.022Z,22.73
2023-02-02T20:11:43.146Z,22.50
2023-02-02T20:14:21.712Z,26.90
2023-02-02T20:16:53.261Z,26.20
2023-02-02T20:19:27.330Z,25.83
2023-02-02T20:21:56.402Z,31.50
2023-02-02T20:24:48.989Z,32.13
2023-02-02T20:27:20.641Z,28.17
2023-02-02T20:29:52.656Z,21.30
2023-02-02T20:32:36.479Z,22.23
2023-02-02T20:35:23.460Z,19.00
2023-02-02T20:37:51.855Z,20.90
2023-02-02T20:40:20.137Z,19.47
2023-02-02T20:42:51.465Z,17.30
2023-02-02T20:45:21.736Z,27.53
2023-02-02T20:47:50.500Z,18.30
2023-02-02T20:50:21.215Z,16.00
2023-02-02T20:52:52.085Z,15.93
2023-02-02T20:55:20.559Z,18.23
2023-02-02T20:57:53.341Z,15.77
2023-02-02T21:00:24.151Z,16.73
2023-02-02T21:02:52.906Z,19.73
2023-02-02T21:05:24.313Z,19.17
2023-02-02T21:07:55.158Z,18.00
2023-02-02T21:10:24.441Z,18.37
2023-02-02T21:12:53.109Z,15.70
2023-02-02T21:15:21.899Z,17.63
2023-02-02T21:17:50.943Z,16.83
2023-02-02T21:20:20.129Z,16.73
2023-02-02T21:22:52.489Z,13.43
2023-02-02T21:25:20.977Z,14.17
2023-02-02T21:27:49.909Z,17.60
2023-02-02T21:30:18.771Z,11.87
2023-02-02T21:32:46.652Z,13.87
2023-02-02T21:35:15.259Z,13.60
2023-02-02T21:37:50.810Z,15.63
2023-02-02T21:40:29.981Z,14.90
2023-02-02T21:43:00.959Z,16.07
2023-02-02T21:45:37.575Z,15.17
2023-02-02T21:48:19.614Z,13.23
2023-02-02T21:50:48.087Z,14.33
2023-02-02T21:53:24.588Z,17.30
2023-02-02T21:55:55.908Z,16.13
2023-02-02T21:58:40.060Z,17.30
2023-02-02T22:01:22.873Z,16.23
2023-02-02T22:03:51.417Z,14.03
2023-02-02T22:06:26.029Z,16.47
2023-02-02T22:09:07.417Z,14.97
2023-02-02T22:11:45.819Z,13.00
2023-02-02T22:14:32.792Z,15.13
2023-02-02T22:17:30.123Z,15.60
2023-02-02T22:20:35.006Z,16.73
2023-02-02T22:23:04.418Z,16.47
2023-02-02T22:25:37.469Z,16.67
2023-02-02T22:28:15.917Z,15.83
2023-02-02T22:30:44.472Z,16.97
2023-02-02T22:33:13.645Z,23.30
2023-02-02T22:35:44.799Z,17.00
2023-02-02T22:38:20.984Z,13.47
2023-02-02T22:40:53.220Z,14.00
2023-02-02T22:43:21.767Z,12.73
2023-02-02T22:45:50.334Z,14.00
2023-02-02T22:48:19.510Z,15.00
2023-02-02T22:50:48.694Z,9.37
2023-02-02T22:53:16.771Z,11.13
2023-02-02T22:55:47.915Z,9.57
2023-02-02T22:58:16.997Z,9.60
2023-02-02T23:00:45.133Z,9.60
2023-02-02T23:03:13.262Z,11.17
2023-02-02T23:05:41.828Z,9.47
2023-02-02T23:08:11.100Z,10.87
2023-02-02T23:10:59.568Z,9.40
2023-02-02T23:13:27.688Z,9.87
2023-02-02T23:15:57.181Z,9.87
2023-02-02T23:18:25.445Z,13.13
2023-02-02T23:20:54.124Z,7.93
2023-02-02T23:23:26.573Z,11.70
2023-02-02T23:25:55.167Z,10.37
2023-02-02T23:28:23.739Z,12.67
2023-02-02T23:30:55.159Z,7.87
2023-02-02T23:33:23.665Z,7.87
2023-02-02T23:35:54.052Z,8.13
2023-02-02T23:38:22.304Z,8.60
2023-02-02T23:40:50.671Z,8.97
2023-02-02T23:43:19.123Z,8.57
2023-02-02T23:45:47.489Z,9.27
2023-02-02T23:48:15.649Z,8.97
2023-02-02T23:50:44.628Z,8.70
2023-02-02T23:53:14.051Z,11.63
2023-02-02T23:55:45.958Z,8.00
2023-02-02T23:58:14.388Z,9.53
